sensor_id;sensor_type;location;lat;lon;timestamp;P1;durP1;ratioP1;P2;durP2;ratioP2
2760;SDS011;15420;48.636;9.798;2022-10-22T00:02:27;1.10;;;1.10;;
2760;SDS011;15420;48.636;9.798;2022-10-22T00:04:53;1.20;;;1.10;;
2760;SDS011;15420;48.636;9.798;2022-10-22T00:07:21;1.13;;;1.03;;
2760;SDS011;15420;48.636;9.798;2022-10-22T00:09:48;1.43;;;1.10;;
2760;SDS011;15420;48.636;9.798;2022-10-22T00:12:14;1.20;;;1.10;;
2760;SDS011;15420;48.636;9.798;2022-10-22T00:14:41;3.07;;;1.30;;
2760;SDS011;15420;48.636;9.798;2022-10-22T00:17:08;1.53;;;1.30;;
2760;SDS011;15420;48.636;9.798;2022-10-22T00:19:34;1.33;;;1.23;;
2760;SDS011;15420;48.636;9.798;2022-10-22T00:22:03;1.10;;;1.00;;
2760;SDS011;15420;48.636;9.798;2022-10-22T00:24:30;1.13;;;1.00;;
2760;SDS011;15420;48.636;9.798;2022-10-22T00:26:59;4.30;;;1.10;;
2760;SDS011;15420;48.636;9.798;2022-10-22T00:29:26;1.40;;;1.30;;
2760;SDS011;15420;48.636;9.798;2022-10-22T00:31:55;1.20;;;1.10;;
2760;SDS011;15420;48.636;9.798;2022-10-22T00:34:21;2.37;;;1.20;;
2760;SDS011;15420;48.636;9.798;2022-10-22T00:36:48;3.00;;;1.83;;
2760;SDS011;15420;48.636;9.798;2022-10-22T00:39:16;2.03;;;1.37;;
2760;SDS011;15420;48.636;9.798;2022-10-22T00:41:44;1.23;;;1.07;;
2760;SDS011;15420;48.636;9.798;2022-10-22T00:47:16;0.80;;;0.80;;
2760;SDS011;15420;48.636;9.798;2022-10-22T00:49:44;2.27;;;1.00;;
2760;SDS011;15420;48.636;9.798;2022-10-22T00:52:12;1.10;;;1.00;;
2760;SDS011;15420;48.636;9.798;2022-10-22T00:54:38;1.30;;;1.20;;
2760;SDS011;15420;48.636;9.798;2022-10-22T00:57:05;2.60;;;1.20;;
2760;SDS011;15420;48.636;9.798;2022-10-22T00:59:31;2.20;;;1.00;;
2760;SDS011;15420;48.636;9.798;2022-10-22T01:02:00;1.10;;;1.00;;
2760;SDS011;15420;48.636;9.798;2022-10-22T01:04:26;1.00;;;1.00;;
2760;SDS011;15420;48.636;9.798;2022-10-22T01:06:55;1.13;;;1.03;;
2760;SDS011;15420;48.636;9.798;2022-10-22T01:09:36;2.03;;;1.30;;
2760;SDS011;15420;48.636;9.798;2022-10-22T01:12:22;0.80;;;0.80;;
2760;SDS011;15420;48.636;9.798;2022-10-22T01:15:21;0.80;;;0.80;;
2760;SDS011;15420;48.636;9.798;2022-10-22T01:29:17;1.07;;;0.80;;
2760;SDS011;15420;48.636;9.798;2022-10-22T01:32:17;2.23;;;0.70;;
2760;SDS011;15420;48.636;9.798;2022-10-22T01:34:55;0.70;;;0.70;;
2760;SDS011;15420;48.636;9.798;2022-10-22T01:37:31;0.80;;;0.70;;
2760;SDS011;15420;48.636;9.798;2022-10-22T01:40:02;1.37;;;0.67;;
2760;SDS011;15420;48.636;9.798;2022-10-22T01:42:32;1.63;;;0.70;;
2760;SDS011;15420;48.636;9.798;2022-10-22T01:44:59;1.10;;;0.80;;
2760;SDS011;15420;48.636;9.798;2022-10-22T02:04:19;1.20;;;0.73;;
2760;SDS011;15420;48.636;9.798;2022-10-22T02:06:58;0.70;;;0.70;;
2760;SDS011;15420;48.636;9.798;2022-10-22T02:09:30;3.73;;;0.90;;
2760;SDS011;15420;48.636;9.798;2022-10-22T02:11:58;0.83;;;0.67;;
2760;SDS011;15420;48.636;9.798;2022-10-22T02:14:27;0.83;;;0.77;;
2760;SDS011;15420;48.636;9.798;2022-10-22T02:16:55;1.30;;;0.67;;
2760;SDS011;15420;48.636;9.798;2022-10-22T02:19:24;1.60;;;0.70;;
2760;SDS011;15420;48.636;9.798;2022-10-22T02:21:56;1.00;;;0.60;;
2760;SDS011;15420;48.636;9.798;2022-10-22T02:24:23;2.23;;;0.60;;
2760;SDS011;15420;48.636;9.798;2022-10-22T02:26:54;0.60;;;0.57;;
2760;SDS011;15420;48.636;9.798;2022-10-22T02:29:27;3.33;;;0.80;;
2760;SDS011;15420;48.636;9.798;2022-10-22T02:32:15;0.70;;;0.70;;
2760;SDS011;15420;48.636;9.798;2022-10-22T02:34:45;0.80;;;0.80;;
2760;SDS011;15420;48.636;9.798;2022-10-22T02:37:13;2.77;;;0.90;;
2760;SDS011;15420;48.636;9.798;2022-10-22T02:39:42;0.90;;;0.70;;
2760;SDS011;15420;48.636;9.798;2022-10-22T02:42:09;1.27;;;0.87;;
2760;SDS011;15420;48.636;9.798;2022-10-22T02:44:42;1.00;;;0.77;;
2760;SDS011;15420;48.636;9.798;2022-10-22T02:47:08;2.70;;;1.40;;
2760;SDS011;15420;48.636;9.798;2022-10-22T02:49:34;2.97;;;0.90;;
2760;SDS011;15420;48.636;9.798;2022-10-22T02:52:03;0.90;;;0.77;;
2760;SDS011;15420;48.636;9.798;2022-10-22T02:54:29;1.23;;;0.80;;
2760;SDS011;15420;48.636;9.798;2022-10-22T02:56:55;0.80;;;0.60;;
2760;SDS011;15420;48.636;9.798;2022-10-22T02:59:23;0.50;;;0.50;;
2760;SDS011;15420;48.636;9.798;2022-10-22T03:01:49;0.60;;;0.60;;
2760;SDS011;15420;48.636;9.798;2022-10-22T03:04:16;0.60;;;0.60;;
2760;SDS011;15420;48.636;9.798;2022-10-22T03:06:44;0.53;;;0.50;;
2760;SDS011;15420;48.636;9.798;2022-10-22T03:09:12;0.70;;;0.60;;
2760;SDS011;15420;48.636;9.798;2022-10-22T03:11:38;0.60;;;0.60;;
2760;SDS011;15420;48.636;9.798;2022-10-22T03:14:05;1.13;;;0.67;;
2760;SDS011;15420;48.636;9.798;2022-10-22T03:16:33;0.90;;;0.80;;
2760;SDS011;15420;48.636;9.798;2022-10-22T03:18:59;0.80;;;0.67;;
2760;SDS011;15420;48.636;9.798;2022-10-22T03:21:39;0.87;;;0.80;;
2760;SDS011;15420;48.636;9.798;2022-10-22T03:24:15;1.00;;;0.90;;
2760;SDS011;15420;48.636;9.798;2022-10-22T03:26:50;0.73;;;0.70;;
2760;SDS011;15420;48.636;9.798;2022-10-22T03:29:20;1.93;;;0.70;;
2760;SDS011;15420;48.636;9.798;2022-10-22T03:31:49;0.80;;;0.80;;
2760;SDS011;15420;48.636;9.798;2022-10-22T03:34:18;1.43;;;0.70;;
2760;SDS011;15420;48.636;9.798;2022-10-22T03:36:47;2.53;;;0.90;;
2760;SDS011;15420;48.636;9.798;2022-10-22T03:39:17;2.03;;;0.70;;
2760;SDS011;15420;48.636;9.798;2022-10-22T03:41:45;0.70;;;0.70;;
2760;SDS011;15420;48.636;9.798;2022-10-22T03:44:12;1.70;;;1.00;;
2760;SDS011;15420;48.636;9.798;2022-10-22T03:46:44;2.80;;;1.77;;
2760;SDS011;15420;48.636;9.798;2022-10-22T03:49:12;1.00;;;0.60;;
2760;SDS011;15420;48.636;9.798;2022-10-22T03:51:39;4.13;;;0.80;;
2760;SDS011;15420;48.636;9.798;2022-10-22T03:54:05;0.97;;;0.87;;
2760;SDS011;15420;48.636;9.798;2022-10-22T03:56:32;0.70;;;0.70;;
2760;SDS011;15420;48.636;9.798;2022-10-22T03:58:58;2.67;;;0.70;;
2760;SDS011;15420;48.636;9.798;2022-10-22T04:01:28;0.80;;;0.70;;
2760;SDS011;15420;48.636;9.798;2022-10-22T04:03:59;0.60;;;0.60;;
2760;SDS011;15420;48.636;9.798;2022-10-22T04:06:28;2.30;;;0.80;;
2760;SDS011;15420;48.636;9.798;2022-10-22T04:08:55;1.53;;;0.73;;
2760;SDS011;15420;48.636;9.798;2022-10-22T04:11:25;2.60;;;1.00;;
2760;SDS011;15420;48.636;9.798;2022-10-22T04:13:53;0.67;;;0.60;;
2760;SDS011;15420;48.636;9.798;2022-10-22T04:16:19;1.10;;;0.70;;
2760;SDS011;15420;48.636;9.798;2022-10-22T04:18:47;0.70;;;0.60;;
2760;SDS011;15420;48.636;9.798;2022-10-22T04:21:15;1.90;;;0.60;;
2760;SDS011;15420;48.636;9.798;2022-10-22T04:23:45;3.60;;;1.43;;
2760;SDS011;15420;48.636;9.798;2022-10-22T04:26:16;2.10;;;0.73;;
2760;SDS011;15420;48.636;9.798;2022-10-22T04:28:43;0.97;;;0.97;;
2760;SDS011;15420;48.636;9.798;2022-10-22T04:31:11;0.83;;;0.77;;
2760;SDS011;15420;48.636;9.798;2022-10-22T04:33:39;1.27;;;0.90;;
2760;SDS011;15420;48.636;9.798;2022-10-22T04:36:17;0.90;;;0.90;;
2760;SDS011;15420;48.636;9.798;2022-10-22T04:38:44;3.10;;;0.90;;
2760;SDS011;15420;48.636;9.798;2022-10-22T04:43:42;1.00;;;0.60;;
2760;SDS011;15420;48.636;9.798;2022-10-22T04:46:09;0.90;;;0.70;;
2760;SDS011;15420;48.636;9.798;2022-10-22T04:48:41;0.97;;;0.50;;
2760;SDS011;15420;48.636;9.798;2022-10-22T04:51:14;1.20;;;0.80;;
2760;SDS011;15420;48.636;9.798;2022-10-22T04:53:41;0.77;;;0.77;;
2760;SDS011;15420;48.636;9.798;2022-10-22T04:58:49;2.60;;;0.60;;
2760;SDS011;15420;48.636;9.798;2022-10-22T05:01:22;1.27;;;0.70;;
2760;SDS011;15420;48.636;9.798;2022-10-22T05:03:51;1.50;;;0.80;;
2760;SDS011;15420;48.636;9.798;2022-10-22T05:06:23;2.37;;;0.70;;
2760;SDS011;15420;48.636;9.798;2022-10-22T05:08:55;0.63;;;0.60;;
2760;SDS011;15420;48.636;9.798;2022-10-22T05:11:29;1.00;;;0.60;;
2760;SDS011;15420;48.636;9.798;2022-10-22T05:13:58;0.70;;;0.60;;
2760;SDS011;15420;48.636;9.798;2022-10-22T05:16:30;1.13;;;0.80;;
2760;SDS011;15420;48.636;9.798;2022-10-22T05:18:57;0.90;;;0.90;;
2760;SDS011;15420;48.636;9.798;2022-10-22T05:21:27;2.30;;;0.90;;
2760;SDS011;15420;48.636;9.798;2022-10-22T05:23:57;4.80;;;1.10;;
2760;SDS011;15420;48.636;9.798;2022-10-22T05:26:28;0.93;;;0.77;;
2760;SDS011;15420;48.636;9.798;2022-10-22T05:28:56;0.70;;;0.70;;
2760;SDS011;15420;48.636;9.798;2022-10-22T05:31:22;1.10;;;0.90;;
2760;SDS011;15420;48.636;9.798;2022-10-22T05:33:49;0.90;;;0.90;;
2760;SDS011;15420;48.636;9.798;2022-10-22T05:36:19;1.07;;;0.80;;
2760;SDS011;15420;48.636;9.798;2022-10-22T05:38:46;1.37;;;1.00;;
2760;SDS011;15420;48.636;9.798;2022-10-22T05:41:19;0.90;;;0.80;;
2760;SDS011;15420;48.636;9.798;2022-10-22T05:43:47;0.77;;;0.77;;
2760;SDS011;15420;48.636;9.798;2022-10-22T05:46:14;2.57;;;1.60;;
2760;SDS011;15420;48.636;9.798;2022-10-22T05:48:58;1.27;;;1.17;;
2760;SDS011;15420;48.636;9.798;2022-10-22T05:51:26;2.20;;;1.27;;
2760;SDS011;15420;48.636;9.798;2022-10-22T05:53:55;1.37;;;1.23;;
2760;SDS011;15420;48.636;9.798;2022-10-22T05:56:25;2.40;;;1.00;;
2760;SDS011;15420;48.636;9.798;2022-10-22T05:58:53;0.90;;;0.80;;
2760;SDS011;15420;48.636;9.798;2022-10-22T06:01:23;0.97;;;0.83;;
2760;SDS011;15420;48.636;9.798;2022-10-22T06:03:58;2.00;;;0.80;;
2760;SDS011;15420;48.636;9.798;2022-10-22T06:09:36;1.30;;;0.77;;
2760;SDS011;15420;48.636;9.798;2022-10-22T06:12:14;0.83;;;0.80;;
2760;SDS011;15420;48.636;9.798;2022-10-22T06:14:40;3.27;;;1.50;;
2760;SDS011;15420;48.636;9.798;2022-10-22T06:17:08;2.90;;;2.70;;
2760;SDS011;15420;48.636;9.798;2022-10-22T06:19:36;2.67;;;2.47;;
2760;SDS011;15420;48.636;9.798;2022-10-22T06:22:07;2.80;;;2.60;;
2760;SDS011;15420;48.636;9.798;2022-10-22T06:24:33;2.70;;;2.50;;
2760;SDS011;15420;48.636;9.798;2022-10-22T06:26:59;2.80;;;2.50;;
2760;SDS011;15420;48.636;9.798;2022-10-22T06:29:27;2.00;;;1.90;;
2760;SDS011;15420;48.636;9.798;2022-10-22T06:31:54;2.13;;;1.90;;
2760;SDS011;15420;48.636;9.798;2022-10-22T06:34:22;2.50;;;1.80;;
2760;SDS011;15420;48.636;9.798;2022-10-22T06:36:54;1.00;;;1.00;;
2760;SDS011;15420;48.636;9.798;2022-10-22T06:39:20;2.20;;;1.33;;
2760;SDS011;15420;48.636;9.798;2022-10-22T06:41:48;1.13;;;1.13;;
2760;SDS011;15420;48.636;9.798;2022-10-22T06:44:17;1.10;;;0.90;;
2760;SDS011;15420;48.636;9.798;2022-10-22T06:46:44;1.40;;;1.07;;
2760;SDS011;15420;48.636;9.798;2022-10-22T06:49:13;1.10;;;1.00;;
2760;SDS011;15420;48.636;9.798;2022-10-22T06:51:44;0.97;;;0.90;;
2760;SDS011;15420;48.636;9.798;2022-10-22T06:54:13;1.13;;;1.13;;
2760;SDS011;15420;48.636;9.798;2022-10-22T06:56:40;0.90;;;0.90;;
2760;SDS011;15420;48.636;9.798;2022-10-22T06:59:06;5.37;;;1.40;;
2760;SDS011;15420;48.636;9.798;2022-10-22T07:01:33;1.80;;;1.70;;
2760;SDS011;15420;48.636;9.798;2022-10-22T07:04:00;3.77;;;1.60;;
2760;SDS011;15420;48.636;9.798;2022-10-22T07:06:28;1.70;;;1.30;;
2760;SDS011;15420;48.636;9.798;2022-10-22T07:08:57;1.00;;;0.90;;
2760;SDS011;15420;48.636;9.798;2022-10-22T07:11:25;1.10;;;1.10;;
2760;SDS011;15420;48.636;9.798;2022-10-22T07:13:59;1.53;;;1.43;;
2760;SDS011;15420;48.636;9.798;2022-10-22T07:16:29;2.00;;;1.83;;
2760;SDS011;15420;48.636;9.798;2022-10-22T07:19:06;3.13;;;1.60;;
2760;SDS011;15420;48.636;9.798;2022-10-22T07:21:32;2.37;;;1.87;;
2760;SDS011;15420;48.636;9.798;2022-10-22T07:24:02;1.80;;;1.70;;
2760;SDS011;15420;48.636;9.798;2022-10-22T07:26:30;2.40;;;1.80;;
2760;SDS011;15420;48.636;9.798;2022-10-22T07:29:06;2.30;;;1.97;;
2760;SDS011;15420;48.636;9.798;2022-10-22T07:31:33;1.87;;;1.77;;
2760;SDS011;15420;48.636;9.798;2022-10-22T07:34:02;2.07;;;1.87;;
2760;SDS011;15420;48.636;9.798;2022-10-22T07:36:28;2.50;;;2.07;;
2760;SDS011;15420;48.636;9.798;2022-10-22T07:39:03;2.23;;;1.67;;
2760;SDS011;15420;48.636;9.798;2022-10-22T07:41:30;2.50;;;1.73;;
2760;SDS011;15420;48.636;9.798;2022-10-22T07:44:04;3.10;;;1.90;;
2760;SDS011;15420;48.636;9.798;2022-10-22T07:46:36;2.40;;;2.00;;
2760;SDS011;15420;48.636;9.798;2022-10-22T07:49:02;2.07;;;1.90;;
2760;SDS011;15420;48.636;9.798;2022-10-22T07:51:28;2.20;;;2.00;;
2760;SDS011;15420;48.636;9.798;2022-10-22T07:53:54;1.80;;;1.53;;
2760;SDS011;15420;48.636;9.798;2022-10-22T07:56:26;5.90;;;2.80;;
2760;SDS011;15420;48.636;9.798;2022-10-22T07:58:52;3.70;;;2.50;;
2760;SDS011;15420;48.636;9.798;2022-10-22T08:01:18;2.43;;;2.00;;
2760;SDS011;15420;48.636;9.798;2022-10-22T08:03:47;1.63;;;1.40;;
2760;SDS011;15420;48.636;9.798;2022-10-22T08:06:16;1.43;;;1.30;;
2760;SDS011;15420;48.636;9.798;2022-10-22T08:08:42;2.30;;;1.60;;
2760;SDS011;15420;48.636;9.798;2022-10-22T08:11:10;3.60;;;1.60;;
2760;SDS011;15420;48.636;9.798;2022-10-22T08:13:36;2.33;;;1.63;;
2760;SDS011;15420;48.636;9.798;2022-10-22T08:16:04;1.93;;;1.47;;
2760;SDS011;15420;48.636;9.798;2022-10-22T08:18:30;1.80;;;1.50;;
2760;SDS011;15420;48.636;9.798;2022-10-22T08:20:56;1.80;;;1.40;;
2760;SDS011;15420;48.636;9.798;2022-10-22T08:23:22;1.57;;;1.47;;
2760;SDS011;15420;48.636;9.798;2022-10-22T08:25:52;1.90;;;1.50;;
2760;SDS011;15420;48.636;9.798;2022-10-22T08:28:19;1.87;;;1.77;;
2760;SDS011;15420;48.636;9.798;2022-10-22T08:30:45;2.03;;;1.80;;
2760;SDS011;15420;48.636;9.798;2022-10-22T08:33:18;2.37;;;1.60;;
2760;SDS011;15420;48.636;9.798;2022-10-22T08:35:54;1.43;;;1.27;;
2760;SDS011;15420;48.636;9.798;2022-10-22T08:38:20;2.53;;;1.50;;
2760;SDS011;15420;48.636;9.798;2022-10-22T08:40:48;1.90;;;1.47;;
2760;SDS011;15420;48.636;9.798;2022-10-22T08:48:41;1.50;;;1.30;;
2760;SDS011;15420;48.636;9.798;2022-10-22T08:51:28;1.63;;;1.53;;
2760;SDS011;15420;48.636;9.798;2022-10-22T08:56:29;1.53;;;0.80;;
2760;SDS011;15420;48.636;9.798;2022-10-22T09:01:40;1.63;;;0.80;;
2760;SDS011;15420;48.636;9.798;2022-10-22T09:06:55;1.27;;;0.93;;
2760;SDS011;15420;48.636;9.798;2022-10-22T09:09:23;1.93;;;1.37;;
2760;SDS011;15420;48.636;9.798;2022-10-22T09:11:57;4.37;;;3.97;;
2760;SDS011;15420;48.636;9.798;2022-10-22T09:14:32;4.10;;;3.60;;
2760;SDS011;15420;48.636;9.798;2022-10-22T09:22:30;3.97;;;1.50;;
2760;SDS011;15420;48.636;9.798;2022-10-22T09:27:43;5.90;;;1.33;;
2760;SDS011;15420;48.636;9.798;2022-10-22T09:30:16;2.20;;;1.70;;
2760;SDS011;15420;48.636;9.798;2022-10-22T09:33:19;6.77;;;4.50;;
2760;SDS011;15420;48.636;9.798;2022-10-22T09:35:52;7.27;;;5.67;;
2760;SDS011;15420;48.636;9.798;2022-10-22T09:38:26;8.00;;;6.63;;
2760;SDS011;15420;48.636;9.798;2022-10-22T09:41:03;6.70;;;5.63;;
2760;SDS011;15420;48.636;9.798;2022-10-22T09:43:31;5.43;;;4.23;;
2760;SDS011;15420;48.636;9.798;2022-10-22T09:46:00;4.60;;;4.00;;
2760;SDS011;15420;48.636;9.798;2022-10-22T09:51:21;6.63;;;5.83;;
2760;SDS011;15420;48.636;9.798;2022-10-22T09:53:58;11.57;;;8.57;;
2760;SDS011;15420;48.636;9.798;2022-10-22T09:56:33;7.77;;;5.93;;
2760;SDS011;15420;48.636;9.798;2022-10-22T09:59:15;4.47;;;3.63;;
2760;SDS011;15420;48.636;9.798;2022-10-22T10:01:46;2.63;;;1.63;;
2760;SDS011;15420;48.636;9.798;2022-10-22T10:04:27;1.80;;;1.70;;
2760;SDS011;15420;48.636;9.798;2022-10-22T10:07:11;1.30;;;1.20;;
2760;SDS011;15420;48.636;9.798;2022-10-22T10:09:47;1.43;;;1.33;;
2760;SDS011;15420;48.636;9.798;2022-10-22T10:20:48;0.90;;;0.90;;
2760;SDS011;15420;48.636;9.798;2022-10-22T10:23:48;1.17;;;0.83;;
2760;SDS011;15420;48.636;9.798;2022-10-22T10:26:36;1.30;;;1.10;;
2760;SDS011;15420;48.636;9.798;2022-10-22T10:29:29;1.17;;;1.07;;
2760;SDS011;15420;48.636;9.798;2022-10-22T10:32:19;0.97;;;0.73;;
2760;SDS011;15420;48.636;9.798;2022-10-22T10:45:36;3.70;;;1.20;;
2760;SDS011;15420;48.636;9.798;2022-10-22T10:56:39;1.87;;;1.40;;
2760;SDS011;15420;48.636;9.798;2022-10-22T10:59:09;0.77;;;0.77;;
2760;SDS011;15420;48.636;9.798;2022-10-22T11:04:40;1.07;;;0.90;;
2760;SDS011;15420;48.636;9.798;2022-10-22T11:07:30;1.10;;;1.00;;
2760;SDS011;15420;48.636;9.798;2022-10-22T11:10:12;1.93;;;0.83;;
2760;SDS011;15420;48.636;9.798;2022-10-22T11:13:11;2.83;;;1.47;;
2760;SDS011;15420;48.636;9.798;2022-10-22T11:15:51;1.97;;;1.63;;
2760;SDS011;15420;48.636;9.798;2022-10-22T11:18:28;2.00;;;1.37;;
2760;SDS011;15420;48.636;9.798;2022-10-22T11:26:26;2.70;;;2.00;;
2760;SDS011;15420;48.636;9.798;2022-10-22T11:28:54;3.63;;;2.13;;
2760;SDS011;15420;48.636;9.798;2022-10-22T11:31:25;1.30;;;1.20;;
2760;SDS011;15420;48.636;9.798;2022-10-22T11:33:59;2.20;;;1.07;;
2760;SDS011;15420;48.636;9.798;2022-10-22T11:36:34;1.47;;;1.30;;
2760;SDS011;15420;48.636;9.798;2022-10-22T11:39:02;1.20;;;0.87;;
2760;SDS011;15420;48.636;9.798;2022-10-22T11:41:35;0.87;;;0.80;;
2760;SDS011;15420;48.636;9.798;2022-10-22T11:46:54;0.90;;;0.80;;
2760;SDS011;15420;48.636;9.798;2022-10-22T11:49:42;1.77;;;1.07;;
2760;SDS011;15420;48.636;9.798;2022-10-22T11:52:22;2.60;;;0.90;;
2760;SDS011;15420;48.636;9.798;2022-10-22T11:54:49;2.07;;;0.83;;
2760;SDS011;15420;48.636;9.798;2022-10-22T11:57:35;3.27;;;0.90;;
2760;SDS011;15420;48.636;9.798;2022-10-22T12:00:06;2.70;;;1.13;;
2760;SDS011;15420;48.636;9.798;2022-10-22T12:03:01;1.07;;;0.70;;
2760;SDS011;15420;48.636;9.798;2022-10-22T12:05:43;2.67;;;0.80;;
2760;SDS011;15420;48.636;9.798;2022-10-22T12:08:14;1.33;;;1.00;;
2760;SDS011;15420;48.636;9.798;2022-10-22T12:16:35;1.80;;;1.20;;
2760;SDS011;15420;48.636;9.798;2022-10-22T12:19:26;1.20;;;1.10;;
2760;SDS011;15420;48.636;9.798;2022-10-22T12:24:39;1.27;;;1.17;;
2760;SDS011;15420;48.636;9.798;2022-10-22T12:27:17;1.30;;;0.70;;
2760;SDS011;15420;48.636;9.798;2022-10-22T12:29:54;1.90;;;1.03;;
2760;SDS011;15420;48.636;9.798;2022-10-22T12:32:22;2.77;;;1.30;;
2760;SDS011;15420;48.636;9.798;2022-10-22T12:35:05;1.37;;;0.80;;
2760;SDS011;15420;48.636;9.798;2022-10-22T12:37:42;2.60;;;1.37;;
2760;SDS011;15420;48.636;9.798;2022-10-22T12:40:34;1.20;;;0.80;;
2760;SDS011;15420;48.636;9.798;2022-10-22T12:43:03;1.10;;;0.90;;
2760;SDS011;15420;48.636;9.798;2022-10-22T12:45:39;1.73;;;1.23;;
2760;SDS011;15420;48.636;9.798;2022-10-22T12:48:13;2.27;;;1.00;;
2760;SDS011;15420;48.636;9.798;2022-10-22T12:50:53;1.47;;;1.10;;
2760;SDS011;15420;48.636;9.798;2022-10-22T12:53:31;2.40;;;0.70;;
2760;SDS011;15420;48.636;9.798;2022-10-22T12:56:29;2.73;;;1.23;;
2760;SDS011;15420;48.636;9.798;2022-10-22T12:59:04;1.43;;;0.80;;
2760;SDS011;15420;48.636;9.798;2022-10-22T13:01:42;1.13;;;0.80;;
2760;SDS011;15420;48.636;9.798;2022-10-22T13:07:17;4.03;;;1.40;;
2760;SDS011;15420;48.636;9.798;2022-10-22T13:12:13;3.00;;;1.10;;
2760;SDS011;15420;48.636;9.798;2022-10-22T13:14:50;2.20;;;1.30;;
2760;SDS011;15420;48.636;9.798;2022-10-22T13:20:17;1.67;;;0.90;;
2760;SDS011;15420;48.636;9.798;2022-10-22T13:22:56;1.80;;;1.07;;
2760;SDS011;15420;48.636;9.798;2022-10-22T13:25:34;2.37;;;0.90;;
2760;SDS011;15420;48.636;9.798;2022-10-22T13:30:33;6.77;;;2.73;;
2760;SDS011;15420;48.636;9.798;2022-10-22T13:35:51;8.03;;;4.77;;
2760;SDS011;15420;48.636;9.798;2022-10-22T13:38:26;4.60;;;2.17;;
2760;SDS011;15420;48.636;9.798;2022-10-22T13:40:53;1.60;;;1.50;;
2760;SDS011;15420;48.636;9.798;2022-10-22T13:43:20;1.07;;;0.90;;
2760;SDS011;15420;48.636;9.798;2022-10-22T13:45:47;1.07;;;0.80;;
2760;SDS011;15420;48.636;9.798;2022-10-22T13:48:22;1.37;;;0.90;;
2760;SDS011;15420;48.636;9.798;2022-10-22T13:50:50;2.10;;;1.00;;
2760;SDS011;15420;48.636;9.798;2022-10-22T13:53:19;3.60;;;0.90;;
2760;SDS011;15420;48.636;9.798;2022-10-22T13:55:49;2.43;;;1.10;;
2760;SDS011;15420;48.636;9.798;2022-10-22T13:58:18;3.03;;;0.70;;
2760;SDS011;15420;48.636;9.798;2022-10-22T14:00:52;1.10;;;0.90;;
2760;SDS011;15420;48.636;9.798;2022-10-22T14:03:27;0.73;;;0.60;;
2760;SDS011;15420;48.636;9.798;2022-10-22T14:05:57;1.57;;;0.73;;
2760;SDS011;15420;48.636;9.798;2022-10-22T14:08:24;1.00;;;0.90;;
2760;SDS011;15420;48.636;9.798;2022-10-22T14:10:52;3.20;;;1.13;;
2760;SDS011;15420;48.636;9.798;2022-10-22T14:13:22;3.80;;;1.70;;
2760;SDS011;15420;48.636;9.798;2022-10-22T14:15:50;2.50;;;1.20;;
2760;SDS011;15420;48.636;9.798;2022-10-22T14:18:25;1.27;;;1.10;;
2760;SDS011;15420;48.636;9.798;2022-10-22T14:20:59;1.53;;;0.90;;
2760;SDS011;15420;48.636;9.798;2022-10-22T14:23:32;2.23;;;1.00;;
2760;SDS011;15420;48.636;9.798;2022-10-22T14:26:03;2.47;;;1.40;;
2760;SDS011;15420;48.636;9.798;2022-10-22T14:28:34;1.20;;;1.10;;
2760;SDS011;15420;48.636;9.798;2022-10-22T14:31:00;0.80;;;0.80;;
2760;SDS011;15420;48.636;9.798;2022-10-22T14:33:34;1.73;;;0.83;;
2760;SDS011;15420;48.636;9.798;2022-10-22T14:36:03;2.20;;;1.00;;
2760;SDS011;15420;48.636;9.798;2022-10-22T14:38:34;2.83;;;0.90;;
2760;SDS011;15420;48.636;9.798;2022-10-22T14:41:04;1.90;;;0.90;;
2760;SDS011;15420;48.636;9.798;2022-10-22T14:43:45;0.93;;;0.90;;
2760;SDS011;15420;48.636;9.798;2022-10-22T14:46:15;1.03;;;0.80;;
2760;SDS011;15420;48.636;9.798;2022-10-22T14:48:41;2.23;;;0.90;;
2760;SDS011;15420;48.636;9.798;2022-10-22T14:51:22;1.87;;;1.10;;
2760;SDS011;15420;48.636;9.798;2022-10-22T14:53:48;1.63;;;1.10;;
2760;SDS011;15420;48.636;9.798;2022-10-22T14:56:16;3.50;;;0.80;;
2760;SDS011;15420;48.636;9.798;2022-10-22T14:58:46;2.60;;;1.40;;
2760;SDS011;15420;48.636;9.798;2022-10-22T15:01:15;2.37;;;1.20;;
2760;SDS011;15420;48.636;9.798;2022-10-22T15:03:44;2.73;;;1.17;;
2760;SDS011;15420;48.636;9.798;2022-10-22T15:06:12;1.23;;;1.00;;
2760;SDS011;15420;48.636;9.798;2022-10-22T15:08:38;3.33;;;1.90;;
2760;SDS011;15420;48.636;9.798;2022-10-22T15:11:09;4.57;;;2.20;;
2760;SDS011;15420;48.636;9.798;2022-10-22T15:13:42;3.90;;;3.30;;
2760;SDS011;15420;48.636;9.798;2022-10-22T15:16:09;5.27;;;3.63;;
2760;SDS011;15420;48.636;9.798;2022-10-22T15:18:41;2.63;;;2.30;;
2760;SDS011;15420;48.636;9.798;2022-10-22T15:21:16;4.07;;;2.23;;
2760;SDS011;15420;48.636;9.798;2022-10-22T15:23:47;2.00;;;1.90;;
2760;SDS011;15420;48.636;9.798;2022-10-22T15:26:16;5.27;;;2.50;;
2760;SDS011;15420;48.636;9.798;2022-10-22T15:28:45;3.37;;;2.53;;
2760;SDS011;15420;48.636;9.798;2022-10-22T15:31:12;2.83;;;2.30;;
2760;SDS011;15420;48.636;9.798;2022-10-22T15:33:39;3.63;;;2.47;;
2760;SDS011;15420;48.636;9.798;2022-10-22T15:36:11;2.10;;;1.87;;
2760;SDS011;15420;48.636;9.798;2022-10-22T15:38:40;2.10;;;1.83;;
2760;SDS011;15420;48.636;9.798;2022-10-22T15:41:08;2.13;;;1.70;;
2760;SDS011;15420;48.636;9.798;2022-10-22T15:43:37;2.43;;;1.50;;
2760;SDS011;15420;48.636;9.798;2022-10-22T15:46:20;4.27;;;1.57;;
2760;SDS011;15420;48.636;9.798;2022-10-22T15:48:49;1.53;;;1.43;;
2760;SDS011;15420;48.636;9.798;2022-10-22T15:51:17;3.83;;;2.03;;
2760;SDS011;15420;48.636;9.798;2022-10-22T15:53:49;6.27;;;1.70;;
2760;SDS011;15420;48.636;9.798;2022-10-22T15:56:23;2.30;;;1.47;;
2760;SDS011;15420;48.636;9.798;2022-10-22T15:58:51;4.73;;;2.27;;
2760;SDS011;15420;48.636;9.798;2022-10-22T16:01:21;2.50;;;1.83;;
2760;SDS011;15420;48.636;9.798;2022-10-22T16:03:57;2.17;;;1.80;;
2760;SDS011;15420;48.636;9.798;2022-10-22T16:06:48;1.93;;;1.37;;
2760;SDS011;15420;48.636;9.798;2022-10-22T16:09:23;2.07;;;1.50;;
2760;SDS011;15420;48.636;9.798;2022-10-22T16:11:51;5.83;;;3.77;;
2760;SDS011;15420;48.636;9.798;2022-10-22T16:14:23;7.70;;;2.50;;
2760;SDS011;15420;48.636;9.798;2022-10-22T16:16:50;4.83;;;1.80;;
2760;SDS011;15420;48.636;9.798;2022-10-22T16:19:23;2.07;;;1.67;;
2760;SDS011;15420;48.636;9.798;2022-10-22T16:21:57;4.83;;;1.53;;
2760;SDS011;15420;48.636;9.798;2022-10-22T16:24:25;3.67;;;1.70;;
2760;SDS011;15420;48.636;9.798;2022-10-22T16:26:54;1.40;;;1.30;;
2760;SDS011;15420;48.636;9.798;2022-10-22T16:29:22;2.73;;;1.30;;
2760;SDS011;15420;48.636;9.798;2022-10-22T16:31:51;2.10;;;1.30;;
2760;SDS011;15420;48.636;9.798;2022-10-22T16:34:19;3.27;;;1.50;;
2760;SDS011;15420;48.636;9.798;2022-10-22T16:36:45;2.63;;;1.73;;
2760;SDS011;15420;48.636;9.798;2022-10-22T16:39:12;2.50;;;2.30;;
2760;SDS011;15420;48.636;9.798;2022-10-22T16:41:44;1.80;;;1.67;;
2760;SDS011;15420;48.636;9.798;2022-10-22T16:44:13;2.90;;;2.20;;
2760;SDS011;15420;48.636;9.798;2022-10-22T16:46:39;14.10;;;6.70;;
2760;SDS011;15420;48.636;9.798;2022-10-22T16:49:06;12.03;;;6.90;;
2760;SDS011;15420;48.636;9.798;2022-10-22T16:51:35;12.33;;;6.53;;
2760;SDS011;15420;48.636;9.798;2022-10-22T16:54:02;8.63;;;5.03;;
2760;SDS011;15420;48.636;9.798;2022-10-22T16:56:31;8.17;;;4.50;;
2760;SDS011;15420;48.636;9.798;2022-10-22T16:59:05;6.60;;;4.03;;
2760;SDS011;15420;48.636;9.798;2022-10-22T17:01:31;3.00;;;2.40;;
2760;SDS011;15420;48.636;9.798;2022-10-22T17:04:00;3.67;;;2.10;;
2760;SDS011;15420;48.636;9.798;2022-10-22T17:06:26;4.50;;;2.50;;
2760;SDS011;15420;48.636;9.798;2022-10-22T17:08:58;2.47;;;1.73;;
2760;SDS011;15420;48.636;9.798;2022-10-22T17:11:30;2.60;;;2.40;;
2760;SDS011;15420;48.636;9.798;2022-10-22T17:14:02;5.73;;;3.07;;
2760;SDS011;15420;48.636;9.798;2022-10-22T17:16:30;7.63;;;3.40;;
2760;SDS011;15420;48.636;9.798;2022-10-22T17:19:02;3.80;;;2.70;;
2760;SDS011;15420;48.636;9.798;2022-10-22T17:21:29;5.47;;;2.93;;
2760;SDS011;15420;48.636;9.798;2022-10-22T17:23:59;3.73;;;2.57;;
2760;SDS011;15420;48.636;9.798;2022-10-22T17:26:25;2.80;;;2.20;;
2760;SDS011;15420;48.636;9.798;2022-10-22T17:28:57;4.03;;;2.67;;
2760;SDS011;15420;48.636;9.798;2022-10-22T17:31:27;4.93;;;3.00;;